sensor_id;sensor_type;location;lat;lon;timestamp;pressure;altitude;pressure_sealevel;temperature;humidity
74230;BME280;62589;12.568;99.958;2022-12-07T00:01:13;100831.59;;;33.79;52.92
74230;BME280;62589;12.568;99.958;2022-12-07T00:03:42;100841.50;;;33.76;53.17
74230;BME280;62589;12.568;99.958;2022-12-07T00:06:12;100848.25;;;33.75;53.79
74230;BME280;62589;12.568;99.958;2022-12-07T00:08:39;100853.81;;;33.75;53.60
74230;BME280;62589;12.568;99.958;2022-12-07T00:11:09;100865.75;;;33.72;53.81
74230;BME280;62589;12.568;99.958;2022-12-07T00:13:37;100865.75;;;33.72;53.61
74230;BME280;62589;12.568;99.958;2022-12-07T00:16:10;100873.28;;;33.72;53.30
74230;BME280;62589;12.568;99.958;2022-12-07T00:18:38;100877.28;;;33.74;52.99
74230;BME280;62589;12.568;99.958;2022-12-07T00:21:13;100878.47;;;33.73;52.76
74230;BME280;62589;12.568;99.958;2022-12-07T00:23:42;100885.22;;;33.72;52.47
74230;BME280;62589;12.568;99.958;2022-12-07T00:26:18;100896.75;;;33.71;52.77
74230;BME280;62589;12.568;99.958;2022-12-07T00:28:50;100900.75;;;33.73;52.92
74230;BME280;62589;12.568;99.958;2022-12-07T00:31:19;100901.56;;;33.74;53.36
74230;BME280;62589;12.568;99.958;2022-12-07T00:33:46;100913.50;;;33.74;53.59
74230;BME280;62589;12.568;99.958;2022-12-07T00:36:19;100913.06;;;33.72;53.29
74230;BME280;62589;12.568;99.958;2022-12-07T00:38:46;100916.69;;;33.76;53.62
74230;BME280;62589;12.568;99.958;2022-12-07T00:41:19;100920.25;;;33.73;54.14
74230;BME280;62589;12.568;99.958;2022-12-07T00:43:47;100923.44;;;33.75;53.30
74230;BME280;62589;12.568;99.958;2022-12-07T00:46:16;100921.84;;;33.74;53.50
74230;BME280;62589;12.568;99.958;2022-12-07T00:48:43;100918.25;;;33.74;54.03
74230;BME280;62589;12.568;99.958;2022-12-07T00:51:12;100934.56;;;33.75;53.72
74230;BME280;62589;12.568;99.958;2022-12-07T00:53:39;100936.97;;;33.77;53.14
74230;BME280;62589;12.568;99.958;2022-12-07T00:56:13;100932.22;;;33.77;53.32
74230;BME280;62589;12.568;99.958;2022-12-07T00:58:40;100927.50;;;33.82;53.22
74230;BME280;62589;12.568;99.958;2022-12-07T01:01:08;100936.28;;;33.87;53.25
74230;BME280;62589;12.568;99.958;2022-12-07T01:03:35;100939.47;;;33.93;53.45
74230;BME280;62589;12.568;99.958;2022-12-07T01:06:03;100940.31;;;34.04;53.46
74230;BME280;62589;12.568;99.958;2022-12-07T01:08:30;100938.31;;;34.11;54.07
74230;BME280;62589;12.568;99.958;2022-12-07T01:11:03;100939.97;;;34.23;54.02
74230;BME280;62589;12.568;99.958;2022-12-07T01:13:30;100936.03;;;34.35;53.06
74230;BME280;62589;12.568;99.958;2022-12-07T01:15:59;100940.47;;;34.46;52.79
74230;BME280;62589;12.568;99.958;2022-12-07T01:18:27;100948.84;;;34.61;52.04
74230;BME280;62589;12.568;99.958;2022-12-07T01:21:16;100953.25;;;34.79;52.47
74230;BME280;62589;12.568;99.958;2022-12-07T01:23:44;100948.50;;;34.87;51.99
74230;BME280;62589;12.568;99.958;2022-12-07T01:26:14;100949.66;;;34.93;50.90
74230;BME280;62589;12.568;99.958;2022-12-07T01:28:42;100962.03;;;34.99;50.98
74230;BME280;62589;12.568;99.958;2022-12-07T01:31:14;100953.66;;;34.99;51.04
74230;BME280;62589;12.568;99.958;2022-12-07T01:33:44;100955.25;;;35.00;50.31
74230;BME280;62589;12.568;99.958;2022-12-07T01:36:17;100959.25;;;35.03;50.29
74230;BME280;62589;12.568;99.958;2022-12-07T01:38:45;100960.03;;;35.03;49.95
74230;BME280;62589;12.568;99.958;2022-12-07T01:41:14;100963.63;;;35.00;49.84
74230;BME280;62589;12.568;99.958;2022-12-07T01:46:30;100964.81;;;34.99;49.43
74230;BME280;62589;12.568;99.958;2022-12-07T01:48:57;100966.41;;;35.00;49.62
74230;BME280;62589;12.568;99.958;2022-12-07T01:51:25;100979.56;;;34.96;50.62
74230;BME280;62589;12.568;99.958;2022-12-07T01:53:53;100987.13;;;34.96;50.45
74230;BME280;62589;12.568;99.958;2022-12-07T01:56:24;100994.72;;;34.95;50.86
74230;BME280;62589;12.568;99.958;2022-12-07T01:58:55;101003.47;;;34.94;51.04
74230;BME280;62589;12.568;99.958;2022-12-07T02:01:22;101006.25;;;34.94;50.83
74230;BME280;62589;12.568;99.958;2022-12-07T02:03:49;100997.50;;;34.95;50.97
74230;BME280;62589;12.568;99.958;2022-12-07T02:06:19;101008.66;;;34.95;51.04
74230;BME280;62589;12.568;99.958;2022-12-07T02:08:49;101009.47;;;34.99;50.60
74230;BME280;62589;12.568;99.958;2022-12-07T02:11:16;101008.69;;;35.06;50.95
74230;BME280;62589;12.568;99.958;2022-12-07T02:13:44;101005.09;;;35.12;50.29
74230;BME280;62589;12.568;99.958;2022-12-07T02:16:40;101003.53;;;35.33;50.24
74230;BME280;62589;12.568;99.958;2022-12-07T02:19:33;101007.88;;;35.44;49.75
74230;BME280;62589;12.568;99.958;2022-12-07T02:25:30;100997.47;;;35.84;48.42
74230;BME280;62589;12.568;99.958;2022-12-07T02:28:07;100995.81;;;35.97;47.74
74230;BME280;62589;12.568;99.958;2022-12-07T02:30:44;100996.97;;;36.10;46.73
74230;BME280;62589;12.568;99.958;2022-12-07T02:33:24;101004.50;;;36.24;46.98
74230;BME280;62589;12.568;99.958;2022-12-07T02:36:07;100994.03;;;36.39;46.05
74230;BME280;62589;12.568;99.958;2022-12-07T02:41:51;101001.09;;;36.61;45.38
74230;BME280;62589;12.568;99.958;2022-12-07T02:44:23;100991.84;;;36.71;44.90
74230;BME280;62589;12.568;99.958;2022-12-07T02:47:03;100994.97;;;36.88;45.33
74230;BME280;62589;12.568;99.958;2022-12-07T02:49:32;100997.75;;;36.91;44.52
74230;BME280;62589;12.568;99.958;2022-12-07T02:52:00;100996.50;;;36.96;44.59
74230;BME280;62589;12.568;99.958;2022-12-07T02:54:27;100993.25;;;37.01;44.29
74230;BME280;62589;12.568;99.958;2022-12-07T02:57:23;100988.41;;;37.08;44.33
74230;BME280;62589;12.568;99.958;2022-12-07T03:00:14;100992.78;;;37.09;44.41
74230;BME280;62589;12.568;99.958;2022-12-07T03:02:58;100996.00;;;37.08;44.18
74230;BME280;62589;12.568;99.958;2022-12-07T03:05:50;100994.38;;;37.10;44.53
74230;BME280;62589;12.568;99.958;2022-12-07T03:11:29;100989.94;;;37.20;44.26
74230;BME280;62589;12.568;99.958;2022-12-07T03:14:04;100988.66;;;37.25;44.09
74230;BME280;62589;12.568;99.958;2022-12-07T03:16:44;100983.00;;;37.32;44.10
74230;BME280;62589;12.568;99.958;2022-12-07T03:19:18;100982.97;;;37.39;44.31
74230;BME280;62589;12.568;99.958;2022-12-07T03:21:59;100978.03;;;37.50;44.03
74230;BME280;62589;12.568;99.958;2022-12-07T03:24:30;100972.00;;;37.52;43.28
74230;BME280;62589;12.568;99.958;2022-12-07T03:27:07;100974.75;;;37.59;43.53
74230;BME280;62589;12.568;99.958;2022-12-07T03:29:40;100971.16;;;37.58;43.39
74230;BME280;62589;12.568;99.958;2022-12-07T03:32:34;100975.84;;;37.68;43.42
74230;BME280;62589;12.568;99.958;2022-12-07T03:38:11;100960.19;;;37.74;43.35
74230;BME280;62589;12.568;99.958;2022-12-07T03:41:04;100954.84;;;37.83;43.58
74230;BME280;62589;12.568;99.958;2022-12-07T03:43:30;100947.53;;;37.93;42.50
74230;BME280;62589;12.568;99.958;2022-12-07T03:57:43;100929.44;;;38.28;40.53
74230;BME280;62589;12.568;99.958;2022-12-07T04:00:12;100931.00;;;38.33;40.61
74230;BME280;62589;12.568;99.958;2022-12-07T04:02:39;100918.50;;;38.37;40.40
74230;BME280;62589;12.568;99.958;2022-12-07T04:05:07;100920.09;;;38.38;39.55
74230;BME280;62589;12.568;99.958;2022-12-07T04:07:35;100921.56;;;38.46;40.41
74230;BME280;62589;12.568;99.958;2022-12-07T04:10:02;100907.91;;;38.48;39.91
74230;BME280;62589;12.568;99.958;2022-12-07T04:12:29;100914.25;;;38.53;39.51
74230;BME280;62589;12.568;99.958;2022-12-07T04:14:56;100903.03;;;38.53;39.19
74230;BME280;62589;12.568;99.958;2022-12-07T04:17:23;100908.53;;;38.63;38.87
74230;BME280;62589;12.568;99.958;2022-12-07T04:19:49;100904.84;;;38.66;39.15
74230;BME280;62589;12.568;99.958;2022-12-07T04:22:17;100900.47;;;38.65;39.71
74230;BME280;62589;12.568;99.958;2022-12-07T04:24:44;100904.56;;;38.61;39.40
74230;BME280;62589;12.568;99.958;2022-12-07T04:27:10;100903.69;;;38.64;39.67
74230;BME280;62589;12.568;99.958;2022-12-07T04:29:37;100906.13;;;38.62;39.22
74230;BME280;62589;12.568;99.958;2022-12-07T04:32:04;100898.50;;;38.62;38.88
74230;BME280;62589;12.568;99.958;2022-12-07T04:34:31;100899.31;;;38.63;38.77
74230;BME280;62589;12.568;99.958;2022-12-07T04:36:57;100891.25;;;38.65;39.47
74230;BME280;62589;12.568;99.958;2022-12-07T04:39:28;100891.53;;;38.70;39.55
74230;BME280;62589;12.568;99.958;2022-12-07T04:41:56;100885.81;;;38.77;39.02
74230;BME280;62589;12.568;99.958;2022-12-07T04:44:23;100872.94;;;38.80;39.28
74230;BME280;62589;12.568;99.958;2022-12-07T04:46:51;100871.69;;;38.84;39.24
74230;BME280;62589;12.568;99.958;2022-12-07T04:49:19;100867.19;;;38.87;39.12
74230;BME280;62589;12.568;99.958;2022-12-07T04:51:46;100857.91;;;38.90;38.35
74230;BME280;62589;12.568;99.958;2022-12-07T04:54:14;100856.69;;;38.91;38.80
74230;BME280;62589;12.568;99.958;2022-12-07T04:56:41;100841.38;;;38.96;38.55
74230;BME280;62589;12.568;99.958;2022-12-07T04:59:10;100842.19;;;38.96;38.37
74230;BME280;62589;12.568;99.958;2022-12-07T05:01:37;100835.72;;;38.99;38.56
74230;BME280;62589;12.568;99.958;2022-12-07T05:04:04;100832.06;;;39.02;38.23
74230;BME280;62589;12.568;99.958;2022-12-07T05:06:31;100825.59;;;39.05;38.52
74230;BME280;62589;12.568;99.958;2022-12-07T05:08:58;100810.66;;;39.08;38.72
74230;BME280;62589;12.568;99.958;2022-12-07T05:11:25;100818.53;;;39.17;38.58
74230;BME280;62589;12.568;99.958;2022-12-07T05:14:09;100808.88;;;39.18;38.61
74230;BME280;62589;12.568;99.958;2022-12-07T05:16:36;100806.94;;;39.15;38.37
74230;BME280;62589;12.568;99.958;2022-12-07T05:19:04;100804.94;;;39.15;38.12
74230;BME280;62589;12.568;99.958;2022-12-07T05:21:31;100800.09;;;39.16;37.89
74230;BME280;62589;12.568;99.958;2022-12-07T05:23:59;100788.50;;;39.14;37.96
74230;BME280;62589;12.568;99.958;2022-12-07T05:26:25;100788.44;;;39.17;38.20
74230;BME280;62589;12.568;99.958;2022-12-07T05:28:53;100784.78;;;39.21;38.15
74230;BME280;62589;12.568;99.958;2022-12-07T05:31:20;100781.59;;;39.18;38.05
74230;BME280;62589;12.568;99.958;2022-12-07T05:33:48;100778.78;;;39.18;38.11
74230;BME280;62589;12.568;99.958;2022-12-07T05:36:15;100769.16;;;39.20;38.08
74230;BME280;62589;12.568;99.958;2022-12-07T05:38:42;100763.97;;;39.18;37.58
74230;BME280;62589;12.568;99.958;2022-12-07T05:41:11;100764.81;;;39.15;36.90
74230;BME280;62589;12.568;99.958;2022-12-07T05:43:58;100752.44;;;39.12;37.25
74230;BME280;62589;12.568;99.958;2022-12-07T05:46:25;100748.03;;;39.11;37.32
74230;BME280;62589;12.568;99.958;2022-12-07T05:48:52;100740.84;;;39.10;37.37
74230;BME280;62589;12.568;99.958;2022-12-07T05:51:19;100735.31;;;39.07;37.42
74230;BME280;62589;12.568;99.958;2022-12-07T05:53:46;100737.44;;;38.99;37.92
74230;BME280;62589;12.568;99.958;2022-12-07T05:56:13;100728.31;;;38.95;37.83
74230;BME280;62589;12.568;99.958;2022-12-07T05:58:40;100726.84;;;38.87;37.71
74230;BME280;62589;12.568;99.958;2022-12-07T06:01:18;100728.25;;;38.79;37.83
74230;BME280;62589;12.568;99.958;2022-12-07T06:03:45;100709.03;;;38.77;38.44
74230;BME280;62589;12.568;99.958;2022-12-07T06:06:12;100711.03;;;38.77;38.18
74230;BME280;62589;12.568;99.958;2022-12-07T06:08:39;100711.75;;;38.81;38.86
74230;BME280;62589;12.568;99.958;2022-12-07T06:11:05;100710.91;;;38.84;38.26
74230;BME280;62589;12.568;99.958;2022-12-07T06:13:44;100704.75;;;38.89;38.42
74230;BME280;62589;12.568;99.958;2022-12-07T06:16:10;100698.78;;;38.87;37.56
74230;BME280;62589;12.568;99.958;2022-12-07T06:18:40;100697.31;;;38.82;37.98
74230;BME280;62589;12.568;99.958;2022-12-07T06:21:06;100696.50;;;38.82;38.21
74230;BME280;62589;12.568;99.958;2022-12-07T06:23:33;100686.50;;;38.81;37.83
74230;BME280;62589;12.568;99.958;2022-12-07T06:26:00;100686.22;;;38.75;38.44
74230;BME280;62589;12.568;99.958;2022-12-07T06:28:26;100681.09;;;38.70;37.79
74230;BME280;62589;12.568;99.958;2022-12-07T06:31:00;100679.50;;;38.69;37.98
74230;BME280;62589;12.568;99.958;2022-12-07T06:33:27;100681.09;;;38.70;38.46
74230;BME280;62589;12.568;99.958;2022-12-07T06:35:55;100676.63;;;38.73;38.15
74230;BME280;62589;12.568;99.958;2022-12-07T06:38:22;100667.00;;;38.74;38.10
74230;BME280;62589;12.568;99.958;2022-12-07T06:40:48;100666.94;;;38.77;38.41
74230;BME280;62589;12.568;99.958;2022-12-07T06:43:15;100667.59;;;38.85;37.77
74230;BME280;62589;12.568;99.958;2022-12-07T06:45:42;100657.16;;;38.86;37.20
74230;BME280;62589;12.568;99.958;2022-12-07T06:48:09;100652.31;;;38.86;37.28
74230;BME280;62589;12.568;99.958;2022-12-07T06:50:36;100657.41;;;38.91;37.79
74230;BME280;62589;12.568;99.958;2022-12-07T06:53:02;100657.03;;;38.89;37.98
74230;BME280;62589;12.568;99.958;2022-12-07T06:55:29;100650.22;;;38.90;37.47
74230;BME280;62589;12.568;99.958;2022-12-07T06:57:56;100648.19;;;38.91;37.85
74230;BME280;62589;12.568;99.958;2022-12-07T07:00:23;100639.34;;;38.92;37.88
74230;BME280;62589;12.568;99.958;2022-12-07T07:02:49;100629.34;;;38.91;37.42
74230;BME280;62589;12.568;99.958;2022-12-07T07:05:16;100631.34;;;38.91;37.39
74230;BME280;62589;12.568;99.958;2022-12-07T07:07:43;100619.34;;;38.90;38.13
74230;BME280;62589;12.568;99.958;2022-12-07T07:10:10;100619.34;;;38.90;38.86
74230;BME280;62589;12.568;99.958;2022-12-07T07:12:36;100616.09;;;38.92;38.74
74230;BME280;62589;12.568;99.958;2022-12-07T07:15:03;100619.25;;;38.94;38.85
74230;BME280;62589;12.568;99.958;2022-12-07T07:17:30;100613.22;;;38.95;38.15
74230;BME280;62589;12.568;99.958;2022-12-07T07:19:56;100614.44;;;38.94;38.38
74230;BME280;62589;12.568;99.958;2022-12-07T07:22:22;100611.28;;;38.92;37.68
74230;BME280;62589;12.568;99.958;2022-12-07T07:24:49;100610.84;;;38.94;38.04
74230;BME280;62589;12.568;99.958;2022-12-07T07:27:15;100599.19;;;38.95;38.32
74230;BME280;62589;12.568;99.958;2022-12-07T07:29:42;100599.09;;;38.99;38.89
74230;BME280;62589;12.568;99.958;2022-12-07T07:32:08;100609.53;;;38.98;38.39
74230;BME280;62589;12.568;99.958;2022-12-07T07:34:35;100608.84;;;38.94;37.92
74230;BME280;62589;12.568;99.958;2022-12-07T07:37:01;100602.44;;;38.94;38.24
74230;BME280;62589;12.568;99.958;2022-12-07T07:39:28;100604.44;;;38.93;38.74
74230;BME280;62589;12.568;99.958;2022-12-07T07:41:54;100600.84;;;38.93;38.39
74230;BME280;62589;12.568;99.958;2022-12-07T07:44:21;100591.44;;;38.83;38.47
74230;BME280;62589;12.568;99.958;2022-12-07T07:46:47;100592.31;;;38.80;38.09
74230;BME280;62589;12.568;99.958;2022-12-07T07:49:13;100585.97;;;38.76;38.14
74230;BME280;62589;12.568;99.958;2022-12-07T07:51:40;100588.06;;;38.72;38.32
74230;BME280;62589;12.568;99.958;2022-12-07T07:54:06;100579.72;;;38.68;38.57
74230;BME280;62589;12.568;99.958;2022-12-07T07:56:33;100584.53;;;38.68;38.91
74230;BME280;62589;12.568;99.958;2022-12-07T07:58:59;100585.44;;;38.65;38.95
74230;BME280;62589;12.568;99.958;2022-12-07T08:01:25;100585.44;;;38.65;38.02
74230;BME280;62589;12.568;99.958;2022-12-07T08:03:52;100583.84;;;38.64;38.93
74230;BME280;62589;12.568;99.958;2022-12-07T08:06:18;100593.50;;;38.63;38.48
74230;BME280;62589;12.568;99.958;2022-12-07T08:08:45;100593.50;;;38.63;38.59
74230;BME280;62589;12.568;99.958;2022-12-07T08:11:11;100587.88;;;38.63;38.58
74230;BME280;62589;12.568;99.958;2022-12-07T08:13:38;100592.78;;;38.59;39.18
74230;BME280;62589;12.568;99.958;2022-12-07T08:16:06;100587.16;;;38.59;39.28
74230;BME280;62589;12.568;99.958;2022-12-07T08:18:38;100588.03;;;38.56;39.57
74230;BME280;62589;12.568;99.958;2022-12-07T08:21:07;100579.09;;;38.61;39.43
74230;BME280;62589;12.568;99.958;2022-12-07T08:23:35;100576.41;;;38.54;39.49
74230;BME280;62589;12.568;99.958;2022-12-07T08:26:20;100582.03;;;38.54;39.32
74230;BME280;62589;12.568;99.958;2022-12-07T08:28:46;100563.97;;;38.55;38.79
74230;BME280;62589;12.568;99.958;2022-12-07T08:31:15;100565.97;;;38.54;38.85
74230;BME280;62589;12.568;99.958;2022-12-07T08:33:43;100562.03;;;38.51;38.69
74230;BME280;62589;12.568;99.958;2022-12-07T08:36:13;100568.50;;;38.48;38.97
74230;BME280;62589;12.568;99.958;2022-12-07T08:38:41;100556.47;;;38.48;39.11
74230;BME280;62589;12.568;99.958;2022-12-07T08:41:08;100560.88;;;38.49;38.84
74230;BME280;62589;12.568;99.958;2022-12-07T08:43:35;100561.31;;;38.47;38.77
74230;BME280;62589;12.568;99.958;2022-12-07T08:46:21;100563.25;;;38.50;39.51
74230;BME280;62589;12.568;99.958;2022-12-07T08:48:54;100556.13;;;38.46;39.64
74230;BME280;62589;12.568;99.958;2022-12-07T08:51:22;100556.91;;;38.46;39.66
74230;BME280;62589;12.568;99.958;2022-12-07T08:53:50;100567.09;;;38.40;38.99
74230;BME280;62589;12.568;99.958;2022-12-07T08:56:18;100565.13;;;38.37;38.81
74230;BME280;62589;12.568;99.958;2022-12-07T08:58:45;100570.81;;;38.34;38.91
74230;BME280;62589;12.568;99.958;2022-12-07T09:01:11;100572.03;;;38.33;39.11
74230;BME280;62589;12.568;99.958;2022-12-07T09:03:37;100569.66;;;38.31;38.70
74230;BME280;62589;12.568;99.958;2022-12-07T09:06:04;100558.88;;;38.30;39.01
74230;BME280;62589;12.568;99.958;2022-12-07T09:08:41;100572.97;;;38.26;39.00
74230;BME280;62589;12.568;99.958;2022-12-07T09:11:08;100567.03;;;38.24;38.78
74230;BME280;62589;12.568;99.958;2022-12-07T09:13:34;100571.84;;;38.24;38.58
74230;BME280;62589;12.568;99.958;2022-12-07T09:16:01;100568.66;;;38.22;38.55
74230;BME280;62589;12.568;99.958;2022-12-07T09:18:27;100567.50;;;38.19;38.60
74230;BME280;62589;12.568;99.958;2022-12-07T09:20:54;100560.31;;;38.18;38.88
74230;BME280;62589;12.568;99.958;2022-12-07T09:23:20;100569.94;;;38.17;39.00
74230;BME280;62589;12.568;99.958;2022-12-07T09:25:46;100578.00;;;38.15;39.18
74230;BME280;62589;12.568;99.958;2022-12-07T09:28:13;100576.06;;;38.12;38.57
74230;BME280;62589;12.568;99.958;2022-12-07T09:30:44;100570.47;;;38.08;38.83
74230;BME280;62589;12.568;99.958;2022-12-07T09:33:10;100573.28;;;38.08;38.83
74230;BME280;62589;12.568;99.958;2022-12-07T09:35:37;100585.34;;;38.05;39.31
74230;BME280;62589;12.568;99.958;2022-12-07T09:38:03;100579.41;;;38.03;39.43
74230;BME280;62589;12.568;99.958;2022-12-07T09:40:30;100583.06;;;38.00;38.96
74230;BME280;62589;12.568;99.958;2022-12-07T09:42:56;100585.06;;;38.00;39.31
74230;BME280;62589;12.568;99.958;2022-12-07T09:45:25;100583.13;;;37.97;39.71
74230;BME280;62589;12.568;99.958;2022-12-07T09:47:52;100585.56;;;37.95;39.64
74230;BME280;62589;12.568;99.958;2022-12-07T09:50:23;100586.78;;;37.94;39.47
74230;BME280;62589;12.568;99.958;2022-12-07T09:52:51;100588.00;;;37.93;40.00
74230;BME280;62589;12.568;99.958;2022-12-07T09:55:29;100594.81;;;37.92;40.16
74230;BME280;62589;12.568;99.958;2022-12-07T09:57:58;100590.06;;;37.89;39.73
74230;BME280;62589;12.568;99.958;2022-12-07T10:00:25;100595.38;;;37.83;39.71
74230;BME280;62589;12.568;99.958;2022-12-07T10:03:02;100594.66;;;37.79;39.62
74230;BME280;62589;12.568;99.958;2022-12-07T10:05:38;100601.91;;;37.76;40.03
74230;BME280;62589;12.568;99.958;2022-12-07T10:08:12;100605.56;;;37.73;40.26
74230;BME280;62589;12.568;99.958;2022-12-07T10:10:39;100614.81;;;37.70;39.92
74230;BME280;62589;12.568;99.958;2022-12-07T10:13:08;100617.66;;;37.67;39.61
74230;BME280;62589;12.568;99.958;2022-12-07T10:15:52;100621.28;;;37.64;40.36
74230;BME280;62589;12.568;99.958;2022-12-07T10:18:39;100618.56;;;37.60;40.40
74230;BME280;62589;12.568;99.958;2022-12-07T10:24:14;100627.44;;;37.55;40.61
74230;BME280;62589;12.568;99.958;2022-12-07T10:26:51;100633.16;;;37.48;41.00
74230;BME280;62589;12.568;99.958;2022-12-07T10:29:30;100632.03;;;37.42;40.94
74230;BME280;62589;12.568;99.958;2022-12-07T10:32:21;100631.69;;;37.40;41.40
74230;BME280;62589;12.568;99.958;2022-12-07T10:34:56;100644.94;;;37.36;41.26
74230;BME280;62589;12.568;99.958;2022-12-07T10:37:41;100643.84;;;37.30;41.27
74230;BME280;62589;12.568;99.958;2022-12-07T10:40:33;100645.00;;;37.32;41.79
74230;BME280;62589;12.568;99.958;2022-12-07T10:51:50;100663.25;;;37.13;42.13
74230;BME280;62589;12.568;99.958;2022-12-07T10:54:40;100661.66;;;37.12;42.09
74230;BME280;62589;12.568;99.958;2022-12-07T11:00:20;100670.88;;;37.09;42.39
74230;BME280;62589;12.568;99.958;2022-12-07T11:03:03;100664.16;;;37.03;42.32
74230;BME280;62589;12.568;99.958;2022-12-07T11:05:43;100664.19;;;37.00;42.58
74230;BME280;62589;12.568;99.958;2022-12-07T11:11:35;100678.66;;;36.98;42.80
74230;BME280;62589;12.568;99.958;2022-12-07T11:17:19;100690.75;;;36.88;43.04
74230;BME280;62589;12.568;99.958;2022-12-07T11:20:05;100702.34;;;36.87;43.43
74230;BME280;62589;12.568;99.958;2022-12-07T11:22:51;100695.59;;;36.84;43.58
74230;BME280;62589;12.568;99.958;2022-12-07T11:25:24;100708.28;;;36.92;43.29
74230;BME280;62589;12.568;99.958;2022-12-07T11:28:11;100703.69;;;36.78;43.84
74230;BME280;62589;12.568;99.958;2022-12-07T11:31:13;100702.91;;;36.74;43.59
74230;BME280;62589;12.568;99.958;2022-12-07T11:33:53;100708.97;;;36.66;43.77
74230;BME280;62589;12.568;99.958;2022-12-07T11:36:44;100708.97;;;36.66;44.05
74230;BME280;62589;12.568;99.958;2022-12-07T11:45:36;100720.69;;;36.54;45.22
74230;BME280;62589;12.568;99.958;2022-12-07T11:50:58;100724.38;;;36.43;45.45
74230;BME280;62589;12.568;99.958;2022-12-07T11:56:26;100734.81;;;36.39;46.10
74230;BME280;62589;12.568;99.958;2022-12-07T11:59:29;100736.84;;;36.35;46.09
74230;BME280;62589;12.568;99.958;2022-12-07T12:02:07;100748.88;;;36.29;45.58
74230;BME280;62589;12.568;99.958;2022-12-07T12:04:54;100744.47;;;36.31;45.96
74230;BME280;62589;12.568;99.958;2022-12-07T12:07:24;100744.50;;;36.28;46.47
74230;BME280;62589;12.568;99.958;2022-12-07T12:10:13;100750.50;;;36.23;46.91
74230;BME280;62589;12.568;99.958;2022-12-07T12:21:39;100769.72;;;36.17;46.69
74230;BME280;62589;12.568;99.958;2022-12-07T12:24:14;100777.34;;;36.13;47.29
74230;BME280;62589;12.568;99.958;2022-12-07T12:26:52;100778.56;;;36.12;47.31
74230;BME280;62589;12.568;99.958;2022-12-07T12:29:29;100782.97;;;36.09;47.25
74230;BME280;62589;12.568;99.958;2022-12-07T12:32:18;100776.16;;;36.10;47.24
74230;BME280;62589;12.568;99.958;2022-12-07T12:37:45;100797.78;;;36.03;47.16
74230;BME280;62589;12.568;99.958;2022-12-07T12:41:53;100793.91;;;35.83;48.11
74230;BME280;62589;12.568;99.958;2022-12-07T12:44:40;100795.13;;;35.81;48.15
74230;BME280;62589;12.568;99.958;2022-12-07T12:50:17;100807.84;;;35.93;48.63
74230;BME280;62589;12.568;99.958;2022-12-07T12:53:03;100811.03;;;35.92;48.63
74230;BME280;62589;12.568;99.958;2022-12-07T12:56:05;100810.25;;;35.91;48.83
74230;BME280;62589;12.568;99.958;2022-12-07T12:58:33;100809.06;;;35.89;48.83
74230;BME280;62589;12.568;99.958;2022-12-07T13:03:56;100825.03;;;35.88;48.65
74230;BME280;62589;12.568;99.958;2022-12-07T13:06:42;100824.63;;;35.90;49.15
74230;BME280;62589;12.568;99.958;2022-12-07T13:09:28;100818.25;;;35.86;49.20
74230;BME280;62589;12.568;99.958;2022-12-07T13:12:02;100829.03;;;35.84;49.67
74230;BME280;62589;12.568;99.958;2022-12-07T13:14:57;100832.59;;;35.88;49.67
74230;BME280;62589;12.568;99.958;2022-12-07T13:17:57;100832.59;;;35.88;49.91
74230;BME280;62589;12.568;99.958;2022-12-07T13:20:46;100835.81;;;35.86;49.77
74230;BME280;62589;12.568;99.958;2022-12-07T13:23:18;100837.81;;;35.82;50.06
74230;BME280;62589;12.568;99.958;2022-12-07T13:28:40;100846.19;;;35.82;49.97
74230;BME280;62589;12.568;99.958;2022-12-07T13:36:44;100846.59;;;35.80;49.94
74230;BME280;62589;12.568;99.958;2022-12-07T13:39:29;100855.38;;;35.83;49.88
74230;BME280;62589;12.568;99.958;2022-12-07T13:41:58;100858.59;;;35.77;49.69
74230;BME280;62589;12.568;99.958;2022-12-07T13:44:27;100870.16;;;35.79;50.13
74230;BME280;62589;12.568;99.958;2022-12-07T13:49:51;100871.34;;;35.78;50.30
74230;BME280;62589;12.568;99.958;2022-12-07T13:52:21;100868.56;;;35.78;49.87
74230;BME280;62589;12.568;99.958;2022-12-07T13:57:42;100875.75;;;35.79;50.37
74230;BME280;62589;12.568;99.958;2022-12-07T14:00:19;100876.56;;;35.76;50.66
74230;BME280;62589;12.568;99.958;2022-12-07T14:03:22;100884.94;;;35.76;50.62
74230;BME280;62589;12.568;99.958;2022-12-07T14:05:45;100890.13;;;35.74;50.60
74230;BME280;62589;12.568;99.958;2022-12-07T14:08:29;100898.06;;;35.76;50.95
74230;BME280;62589;12.568;99.958;2022-12-07T14:10:57;100902.91;;;35.72;50.53
74230;BME280;62589;12.568;99.958;2022-12-07T14:13:37;100907.69;;;35.71;50.58
74230;BME280;62589;12.568;99.958;2022-12-07T14:18:59;100908.91;;;35.67;49.80
74230;BME280;62589;12.568;99.958;2022-12-07T14:21:31;100919.28;;;35.63;49.65
74230;BME280;62589;12.568;99.958;2022-12-07T14:24:11;100913.69;;;35.63;49.20
74230;BME280;62589;12.568;99.958;2022-12-07T14:26:39;100923.28;;;35.62;49.29
74230;BME280;62589;12.568;99.958;2022-12-07T14:29:31;100926.47;;;35.60;49.43
74230;BME280;62589;12.568;99.958;2022-12-07T14:32:17;100923.28;;;35.58;49.65
74230;BME280;62589;12.568;99.958;2022-12-07T14:34:57;100928.09;;;35.54;49.76
74230;BME280;62589;12.568;99.958;2022-12-07T14:37:24;100931.69;;;35.51;49.50
74230;BME280;62589;12.568;99.958;2022-12-07T14:39:51;100934.50;;;35.47;49.62
74230;BME280;62589;12.568;99.958;2022-12-07T14:42:18;100931.31;;;35.45;49.30